sensor_id;sensor_type;location;lat;lon;timestamp;temperature;humidity
26272;DHT22;13997;48.902;12.472;2022-08-21T00:00:42;461.70;2380.80
26272;DHT22;13997;48.902;12.472;2022-08-21T00:03:10;461.70;2380.80
26272;DHT22;13997;48.902;12.472;2022-08-21T00:05:39;461.70;2380.80
26272;DHT22;13997;48.902;12.472;2022-08-21T00:08:05;461.70;2380.80
26272;DHT22;13997;48.902;12.472;2022-08-21T00:10:32;461.70;2380.80
26272;DHT22;13997;48.902;12.472;2022-08-21T00:12:57;461.70;2380.80
26272;DHT22;13997;48.902;12.472;2022-08-21T00:15:26;461.70;2380.80
26272;DHT22;13997;48.902;12.472;2022-08-21T00:17:53;461.70;2380.80
26272;DHT22;13997;48.902;12.472;2022-08-21T00:20:19;461.70;2380.80
26272;DHT22;13997;48.902;12.472;2022-08-21T00:22:45;461.70;2380.80
26272;DHT22;13997;48.902;12.472;2022-08-21T00:25:12;461.70;2380.80
26272;DHT22;13997;48.902;12.472;2022-08-21T00:27:39;461.70;2380.80
26272;DHT22;13997;48.902;12.472;2022-08-21T00:30:08;461.70;2380.80
26272;DHT22;13997;48.902;12.472;2022-08-21T00:32:38;461.70;2380.80
26272;DHT22;13997;48.902;12.472;2022-08-21T00:35:06;461.60;2380.80
26272;DHT22;13997;48.902;12.472;2022-08-21T00:37:33;461.70;2380.80
26272;DHT22;13997;48.902;12.472;2022-08-21T00:39:58;461.70;2380.80
26272;DHT22;13997;48.902;12.472;2022-08-21T00:42:24;461.70;2380.80
26272;DHT22;13997;48.902;12.472;2022-08-21T00:44:50;461.70;2380.80
26272;DHT22;13997;48.902;12.472;2022-08-21T00:47:17;461.70;2380.80
26272;DHT22;13997;48.902;12.472;2022-08-21T00:49:43;461.70;2380.80
26272;DHT22;13997;48.902;12.472;2022-08-21T00:52:12;461.60;2380.80
26272;DHT22;13997;48.902;12.472;2022-08-21T00:54:40;461.60;2380.80
26272;DHT22;13997;48.902;12.472;2022-08-21T00:57:14;461.60;2380.80
26272;DHT22;13997;48.902;12.472;2022-08-21T00:59:44;461.60;2380.80
26272;DHT22;13997;48.902;12.472;2022-08-21T01:02:11;461.60;2380.80
26272;DHT22;13997;48.902;12.472;2022-08-21T01:04:37;461.60;2380.80
26272;DHT22;13997;48.902;12.472;2022-08-21T01:07:03;461.60;2380.80
26272;DHT22;13997;48.902;12.472;2022-08-21T01:09:29;461.60;2380.80
26272;DHT22;13997;48.902;12.472;2022-08-21T01:11:54;461.60;2380.80
26272;DHT22;13997;48.902;12.472;2022-08-21T01:14:20;461.60;2380.80
26272;DHT22;13997;48.902;12.472;2022-08-21T01:16:50;461.60;2380.80
26272;DHT22;13997;48.902;12.472;2022-08-21T01:19:17;461.70;2380.80
26272;DHT22;13997;48.902;12.472;2022-08-21T01:21:43;461.70;2380.80
26272;DHT22;13997;48.902;12.472;2022-08-21T01:24:10;461.70;2380.80
26272;DHT22;13997;48.902;12.472;2022-08-21T01:26:36;461.70;2380.80
26272;DHT22;13997;48.902;12.472;2022-08-21T01:29:44;461.70;2380.80
26272;DHT22;13997;48.902;12.472;2022-08-21T01:31:50;461.70;2380.80
26272;DHT22;13997;48.902;12.472;2022-08-21T01:34:16;461.70;2380.80
26272;DHT22;13997;48.902;12.472;2022-08-21T01:36:43;486.40;2380.80
26272;DHT22;13997;48.902;12.472;2022-08-21T01:39:09;461.70;2380.80
26272;DHT22;13997;48.902;12.472;2022-08-21T01:41:34;461.70;2380.80
26272;DHT22;13997;48.902;12.472;2022-08-21T01:44:00;461.70;2380.80
26272;DHT22;13997;48.902;12.472;2022-08-21T01:46:25;461.70;2380.80
26272;DHT22;13997;48.902;12.472;2022-08-21T01:48:51;461.70;2380.80
26272;DHT22;13997;48.902;12.472;2022-08-21T01:51:17;461.70;2380.80
26272;DHT22;13997;48.902;12.472;2022-08-21T01:53:42;461.70;2380.80
26272;DHT22;13997;48.902;12.472;2022-08-21T01:56:11;461.70;2380.80
26272;DHT22;13997;48.902;12.472;2022-08-21T01:58:37;461.60;2380.80
26272;DHT22;13997;48.902;12.472;2022-08-21T02:01:03;461.60;2380.80
26272;DHT22;13997;48.902;12.472;2022-08-21T02:03:29;461.60;2380.80
26272;DHT22;13997;48.902;12.472;2022-08-21T02:05:55;461.40;2380.80
26272;DHT22;13997;48.902;12.472;2022-08-21T02:08:21;461.40;2380.80
26272;DHT22;13997;48.902;12.472;2022-08-21T02:10:49;461.40;2380.80
26272;DHT22;13997;48.902;12.472;2022-08-21T02:13:15;461.40;2380.80
26272;DHT22;13997;48.902;12.472;2022-08-21T02:15:41;461.30;2380.80
26272;DHT22;13997;48.902;12.472;2022-08-21T02:18:09;461.30;2380.80
26272;DHT22;13997;48.902;12.472;2022-08-21T02:20:40;461.30;2380.80
26272;DHT22;13997;48.902;12.472;2022-08-21T02:23:08;461.40;2380.80
26272;DHT22;13997;48.902;12.472;2022-08-21T02:25:35;461.40;2380.80
26272;DHT22;13997;48.902;12.472;2022-08-21T02:28:05;461.40;2380.80
26272;DHT22;13997;48.902;12.472;2022-08-21T02:30:34;461.40;2380.80
26272;DHT22;13997;48.902;12.472;2022-08-21T02:33:00;461.40;2380.80
26272;DHT22;13997;48.902;12.472;2022-08-21T02:35:26;461.50;2380.80
26272;DHT22;13997;48.902;12.472;2022-08-21T02:37:58;461.50;2380.80
26272;DHT22;13997;48.902;12.472;2022-08-21T02:40:31;461.50;2380.80
26272;DHT22;13997;48.902;12.472;2022-08-21T02:42:58;461.40;2380.80
26272;DHT22;13997;48.902;12.472;2022-08-21T02:45:24;461.40;2380.80
26272;DHT22;13997;48.902;12.472;2022-08-21T02:47:56;461.40;2380.80
26272;DHT22;13997;48.902;12.472;2022-08-21T02:50:28;461.40;2380.80
26272;DHT22;13997;48.902;12.472;2022-08-21T02:52:54;461.40;2380.80
26272;DHT22;13997;48.902;12.472;2022-08-21T02:55:21;461.40;2380.80
26272;DHT22;13997;48.902;12.472;2022-08-21T02:57:47;461.40;2380.80
26272;DHT22;13997;48.902;12.472;2022-08-21T03:00:15;461.30;2380.80
26272;DHT22;13997;48.902;12.472;2022-08-21T03:02:41;461.30;2380.80
26272;DHT22;13997;48.902;12.472;2022-08-21T03:05:09;461.30;2380.80
26272;DHT22;13997;48.902;12.472;2022-08-21T03:07:36;461.30;2380.80
26272;DHT22;13997;48.902;12.472;2022-08-21T03:10:03;461.30;2380.80
26272;DHT22;13997;48.902;12.472;2022-08-21T03:12:28;461.30;2380.80
26272;DHT22;13997;48.902;12.472;2022-08-21T03:14:54;461.30;2380.80
26272;DHT22;13997;48.902;12.472;2022-08-21T03:17:20;461.30;2380.80
26272;DHT22;13997;48.902;12.472;2022-08-21T03:19:45;461.40;2380.80
26272;DHT22;13997;48.902;12.472;2022-08-21T03:22:11;461.40;2380.80
26272;DHT22;13997;48.902;12.472;2022-08-21T03:24:37;461.30;2380.80
26272;DHT22;13997;48.902;12.472;2022-08-21T03:27:03;461.30;2380.80
26272;DHT22;13997;48.902;12.472;2022-08-21T03:29:29;461.30;2380.80
26272;DHT22;13997;48.902;12.472;2022-08-21T03:31:54;461.30;2380.80
26272;DHT22;13997;48.902;12.472;2022-08-21T03:34:20;461.20;2380.80
26272;DHT22;13997;48.902;12.472;2022-08-21T03:36:47;461.20;2380.80
26272;DHT22;13997;48.902;12.472;2022-08-21T03:39:13;461.20;2380.80
26272;DHT22;13997;48.902;12.472;2022-08-21T03:41:39;461.20;2380.80
26272;DHT22;13997;48.902;12.472;2022-08-21T03:44:04;461.20;2380.80
26272;DHT22;13997;48.902;12.472;2022-08-21T03:46:30;461.10;2380.80
26272;DHT22;13997;48.902;12.472;2022-08-21T03:48:55;461.10;2380.80
26272;DHT22;13997;48.902;12.472;2022-08-21T03:51:21;461.10;2380.80
26272;DHT22;13997;48.902;12.472;2022-08-21T03:53:47;461.20;2380.80
26272;DHT22;13997;48.902;12.472;2022-08-21T03:56:13;461.20;2380.80
26272;DHT22;13997;48.902;12.472;2022-08-21T03:58:38;461.20;2380.80
26272;DHT22;13997;48.902;12.472;2022-08-21T04:01:05;461.20;2380.80
26272;DHT22;13997;48.902;12.472;2022-08-21T04:03:32;461.20;2380.80
26272;DHT22;13997;48.902;12.472;2022-08-21T04:05:59;461.20;2380.80
26272;DHT22;13997;48.902;12.472;2022-08-21T04:08:24;461.20;2380.80
26272;DHT22;13997;48.902;12.472;2022-08-21T04:10:53;461.20;2380.80
26272;DHT22;13997;48.902;12.472;2022-08-21T04:13:19;461.20;2380.80
26272;DHT22;13997;48.902;12.472;2022-08-21T04:15:44;461.10;2380.80
26272;DHT22;13997;48.902;12.472;2022-08-21T04:18:11;461.10;2380.80
26272;DHT22;13997;48.902;12.472;2022-08-21T04:20:37;461.10;2380.80
26272;DHT22;13997;48.902;12.472;2022-08-21T04:23:03;461.10;2380.80
26272;DHT22;13997;48.902;12.472;2022-08-21T04:25:29;461.10;2380.80
26272;DHT22;13997;48.902;12.472;2022-08-21T04:27:55;461.10;2380.80
26272;DHT22;13997;48.902;12.472;2022-08-21T04:30:21;461.10;2380.80
26272;DHT22;13997;48.902;12.472;2022-08-21T04:32:48;461.00;2380.80
26272;DHT22;13997;48.902;12.472;2022-08-21T04:35:15;461.00;2380.80
26272;DHT22;13997;48.902;12.472;2022-08-21T04:37:41;461.00;2380.80
26272;DHT22;13997;48.902;12.472;2022-08-21T04:40:08;461.00;2380.80
26272;DHT22;13997;48.902;12.472;2022-08-21T04:42:44;461.00;2380.80
26272;DHT22;13997;48.902;12.472;2022-08-21T04:45:20;461.00;2380.80
26272;DHT22;13997;48.902;12.472;2022-08-21T04:47:49;461.00;2380.80
26272;DHT22;13997;48.902;12.472;2022-08-21T04:50:15;461.00;2380.80
26272;DHT22;13997;48.902;12.472;2022-08-21T04:52:41;461.00;2380.80
26272;DHT22;13997;48.902;12.472;2022-08-21T04:55:06;461.00;2380.80
26272;DHT22;13997;48.902;12.472;2022-08-21T04:57:34;461.00;2380.80
26272;DHT22;13997;48.902;12.472;2022-08-21T05:00:00;461.00;2380.80
26272;DHT22;13997;48.902;12.472;2022-08-21T05:02:26;461.00;2380.80
26272;DHT22;13997;48.902;12.472;2022-08-21T05:04:53;461.00;2380.80
26272;DHT22;13997;48.902;12.472;2022-08-21T05:07:22;461.00;2380.80
26272;DHT22;13997;48.902;12.472;2022-08-21T05:09:50;461.00;2380.80
26272;DHT22;13997;48.902;12.472;2022-08-21T05:12:16;461.00;2380.80
26272;DHT22;13997;48.902;12.472;2022-08-21T05:14:42;461.00;2380.80
26272;DHT22;13997;48.902;12.472;2022-08-21T05:17:08;461.00;2380.80
26272;DHT22;13997;48.902;12.472;2022-08-21T05:19:34;461.00;2380.80
26272;DHT22;13997;48.902;12.472;2022-08-21T05:22:00;461.00;2380.80
26272;DHT22;13997;48.902;12.472;2022-08-21T05:24:26;461.00;2380.80
26272;DHT22;13997;48.902;12.472;2022-08-21T05:26:52;461.00;2380.80
26272;DHT22;13997;48.902;12.472;2022-08-21T05:29:18;461.10;2380.80
26272;DHT22;13997;48.902;12.472;2022-08-21T05:31:45;461.10;2380.80
26272;DHT22;13997;48.902;12.472;2022-08-21T05:34:12;461.10;2380.80
26272;DHT22;13997;48.902;12.472;2022-08-21T05:36:38;461.10;2380.80
26272;DHT22;13997;48.902;12.472;2022-08-21T05:39:04;461.00;2380.80
26272;DHT22;13997;48.902;12.472;2022-08-21T05:41:29;461.00;2380.80
26272;DHT22;13997;48.902;12.472;2022-08-21T05:43:55;461.00;2380.80
26272;DHT22;13997;48.902;12.472;2022-08-21T05:46:21;461.00;2380.80
26272;DHT22;13997;48.902;12.472;2022-08-21T05:48:46;461.00;2380.80
26272;DHT22;13997;48.902;12.472;2022-08-21T05:51:14;461.00;2380.80
26272;DHT22;13997;48.902;12.472;2022-08-21T05:53:41;461.00;2380.80
26272;DHT22;13997;48.902;12.472;2022-08-21T05:56:10;461.00;2380.80
26272;DHT22;13997;48.902;12.472;2022-08-21T05:58:37;461.00;2380.80
26272;DHT22;13997;48.902;12.472;2022-08-21T06:01:03;461.00;2380.80
26272;DHT22;13997;48.902;12.472;2022-08-21T06:03:32;461.00;2380.80
26272;DHT22;13997;48.902;12.472;2022-08-21T06:05:59;461.00;2380.80
26272;DHT22;13997;48.902;12.472;2022-08-21T06:08:26;461.00;2380.80
26272;DHT22;13997;48.902;12.472;2022-08-21T06:10:53;461.00;2380.80
26272;DHT22;13997;48.902;12.472;2022-08-21T06:13:19;461.00;2380.80
26272;DHT22;13997;48.902;12.472;2022-08-21T06:15:46;461.00;2380.80
26272;DHT22;13997;48.902;12.472;2022-08-21T06:18:12;461.00;2380.80
26272;DHT22;13997;48.902;12.472;2022-08-21T06:20:38;461.00;2380.80
26272;DHT22;13997;48.902;12.472;2022-08-21T06:23:04;461.10;2380.80
26272;DHT22;13997;48.902;12.472;2022-08-21T06:25:30;461.10;2380.80
26272;DHT22;13997;48.902;12.472;2022-08-21T06:28:08;461.20;2380.80
26272;DHT22;13997;48.902;12.472;2022-08-21T06:30:35;461.20;2380.80
26272;DHT22;13997;48.902;12.472;2022-08-21T06:33:02;461.30;2380.80
26272;DHT22;13997;48.902;12.472;2022-08-21T06:35:28;461.30;2380.80
26272;DHT22;13997;48.902;12.472;2022-08-21T06:37:55;461.30;2380.80
26272;DHT22;13997;48.902;12.472;2022-08-21T06:40:21;461.40;2380.80
26272;DHT22;13997;48.902;12.472;2022-08-21T06:42:46;461.60;2380.80
26272;DHT22;13997;48.902;12.472;2022-08-21T06:45:12;461.70;2380.80
26272;DHT22;13997;48.902;12.472;2022-08-21T06:47:38;461.70;2380.80
26272;DHT22;13997;48.902;12.472;2022-08-21T06:50:05;461.70;2380.80
26272;DHT22;13997;48.902;12.472;2022-08-21T06:52:34;461.70;2380.80
26272;DHT22;13997;48.902;12.472;2022-08-21T06:54:59;461.70;2380.80
26272;DHT22;13997;48.902;12.472;2022-08-21T06:57:25;461.70;2380.80
26272;DHT22;13997;48.902;12.472;2022-08-21T06:59:51;486.40;2380.80
26272;DHT22;13997;48.902;12.472;2022-08-21T07:02:17;486.50;2380.80
26272;DHT22;13997;48.902;12.472;2022-08-21T07:07:08;486.60;2380.80
26272;DHT22;13997;48.902;12.472;2022-08-21T07:09:34;486.70;2380.80
26272;DHT22;13997;48.902;12.472;2022-08-21T07:12:00;486.80;2380.80
26272;DHT22;13997;48.902;12.472;2022-08-21T07:14:26;486.90;2380.80
26272;DHT22;13997;48.902;12.472;2022-08-21T07:19:18;487.30;2380.80
26272;DHT22;13997;48.902;12.472;2022-08-21T07:21:44;487.20;2380.80
26272;DHT22;13997;48.902;12.472;2022-08-21T07:24:10;487.20;2380.80
26272;DHT22;13997;48.902;12.472;2022-08-21T07:26:36;487.20;2380.80
26272;DHT22;13997;48.902;12.472;2022-08-21T07:29:02;487.20;2380.80
26272;DHT22;13997;48.902;12.472;2022-08-21T07:31:28;487.30;2380.80
26272;DHT22;13997;48.902;12.472;2022-08-21T07:33:54;487.20;2380.80
26272;DHT22;13997;48.902;12.472;2022-08-21T07:36:20;487.20;2380.80
26272;DHT22;13997;48.902;12.472;2022-08-21T07:38:46;487.30;2380.80
26272;DHT22;13997;48.902;12.472;2022-08-21T07:41:19;512.10;2380.80
26272;DHT22;13997;48.902;12.472;2022-08-21T07:43:45;512.30;2380.80
26272;DHT22;13997;48.902;12.472;2022-08-21T07:46:11;512.30;2380.80
26272;DHT22;13997;48.902;12.472;2022-08-21T07:48:38;512.40;2380.80
26272;DHT22;13997;48.902;12.472;2022-08-21T07:51:07;512.50;2380.80
26272;DHT22;13997;48.902;12.472;2022-08-21T08:00:52;512.50;2380.80
26272;DHT22;13997;48.902;12.472;2022-08-21T08:03:17;512.40;2380.80
26272;DHT22;13997;48.902;12.472;2022-08-21T08:05:43;512.40;2380.80
26272;DHT22;13997;48.902;12.472;2022-08-21T08:08:08;512.40;2380.80
26272;DHT22;13997;48.902;12.472;2022-08-21T08:10:34;512.50;2380.80
26272;DHT22;13997;48.902;12.472;2022-08-21T08:13:00;512.60;2380.80
26272;DHT22;13997;48.902;12.472;2022-08-21T08:15:27;512.70;2380.80
26272;DHT22;13997;48.902;12.472;2022-08-21T08:17:54;512.80;2380.80
26272;DHT22;13997;48.902;12.472;2022-08-21T08:20:20;512.90;2380.80
26272;DHT22;13997;48.902;12.472;2022-08-21T08:22:48;512.90;2380.80
26272;DHT22;13997;48.902;12.472;2022-08-21T08:25:15;512.90;2380.80
26272;DHT22;13997;48.902;12.472;2022-08-21T08:27:41;512.90;2380.80
26272;DHT22;13997;48.902;12.472;2022-08-21T08:30:10;512.90;2380.80
26272;DHT22;13997;48.902;12.472;2022-08-21T08:32:36;537.60;2406.40
26272;DHT22;13997;48.902;12.472;2022-08-21T08:35:03;537.70;2406.40
26272;DHT22;13997;48.902;12.472;2022-08-21T08:37:29;537.80;2406.40
26272;DHT22;13997;48.902;12.472;2022-08-21T08:39:55;537.90;2406.40
26272;DHT22;13997;48.902;12.472;2022-08-21T08:42:28;537.90;2406.40
26272;DHT22;13997;48.902;12.472;2022-08-21T08:45:02;538.00;2406.40
26272;DHT22;13997;48.902;12.472;2022-08-21T08:47:30;538.10;2406.40
26272;DHT22;13997;48.902;12.472;2022-08-21T08:50:07;538.20;2406.40
26272;DHT22;13997;48.902;12.472;2022-08-21T08:52:58;538.30;2406.40
26272;DHT22;13997;48.902;12.472;2022-08-21T08:55:34;563.20;2432.00
26272;DHT22;13997;48.902;12.472;2022-08-21T08:58:01;563.40;2432.00
26272;DHT22;13997;48.902;12.472;2022-08-21T09:00:28;563.40;2432.00
26272;DHT22;13997;48.902;12.472;2022-08-21T09:02:56;563.50;2432.00
26272;DHT22;13997;48.902;12.472;2022-08-21T09:05:29;563.40;2432.00
26272;DHT22;13997;48.902;12.472;2022-08-21T09:11:01;563.40;2432.00
26272;DHT22;13997;48.902;12.472;2022-08-21T09:14:30;563.40;2432.00
26272;DHT22;13997;48.902;12.472;2022-08-21T09:19:52;563.50;2432.00
26272;DHT22;13997;48.902;12.472;2022-08-21T09:22:44;563.50;2432.00
26272;DHT22;13997;48.902;12.472;2022-08-21T09:27:43;563.50;2432.00
26272;DHT22;13997;48.902;12.472;2022-08-21T09:30:10;563.50;2432.00
26272;DHT22;13997;48.902;12.472;2022-08-21T09:32:38;563.50;2432.00
26272;DHT22;13997;48.902;12.472;2022-08-21T09:35:16;563.40;2432.00
26272;DHT22;13997;48.902;12.472;2022-08-21T09:37:59;563.60;2432.00
26272;DHT22;13997;48.902;12.472;2022-08-21T09:43:05;564.10;2432.00
26272;DHT22;13997;48.902;12.472;2022-08-21T09:45:32;588.80;2432.00
26272;DHT22;13997;48.902;12.472;2022-08-21T09:48:15;588.90;2432.00
26272;DHT22;13997;48.902;12.472;2022-08-21T09:50:43;589.00;2432.00
26272;DHT22;13997;48.902;12.472;2022-08-21T09:53:26;589.00;2432.00
26272;DHT22;13997;48.902;12.472;2022-08-21T09:56:04;588.90;2432.00
26272;DHT22;13997;48.902;12.472;2022-08-21T09:58:50;588.80;2432.00
26272;DHT22;13997;48.902;12.472;2022-08-21T10:01:24;588.90;2432.00
26272;DHT22;13997;48.902;12.472;2022-08-21T10:04:08;588.90;2432.00
26272;DHT22;13997;48.902;12.472;2022-08-21T10:06:34;588.90;2432.00
26272;DHT22;13997;48.902;12.472;2022-08-21T10:09:12;588.90;2432.00
26272;DHT22;13997;48.902;12.472;2022-08-21T10:11:39;588.90;2432.00
26272;DHT22;13997;48.902;12.472;2022-08-21T10:14:41;589.00;2432.00
26272;DHT22;13997;48.902;12.472;2022-08-21T10:20:11;588.90;2432.00
26272;DHT22;13997;48.902;12.472;2022-08-21T10:30:34;589.50;2432.00
26272;DHT22;13997;48.902;12.472;2022-08-21T10:36:06;589.40;2432.00
26272;DHT22;13997;48.902;12.472;2022-08-21T10:38:46;589.60;2432.00
26272;DHT22;13997;48.902;12.472;2022-08-21T10:47:00;614.70;2432.00
26272;DHT22;13997;48.902;12.472;2022-08-21T10:50:03;589.70;2432.00
26272;DHT22;13997;48.902;12.472;2022-08-21T10:52:49;589.60;2432.00
26272;DHT22;13997;48.902;12.472;2022-08-21T10:55:22;589.60;2432.00
26272;DHT22;13997;48.902;12.472;2022-08-21T11:00:36;614.40;2432.00
26272;DHT22;13997;48.902;12.472;2022-08-21T11:03:14;614.50;2432.00
26272;DHT22;13997;48.902;12.472;2022-08-21T11:05:44;614.70;2432.00
26272;DHT22;13997;48.902;12.472;2022-08-21T11:08:40;614.90;2432.00
26272;DHT22;13997;48.902;12.472;2022-08-21T11:11:12;614.90;2432.00
26272;DHT22;13997;48.902;12.472;2022-08-21T11:13:49;614.80;2432.00
26272;DHT22;13997;48.902;12.472;2022-08-21T11:16:26;614.80;2432.00
26272;DHT22;13997;48.902;12.472;2022-08-21T11:19:28;614.90;2432.00
26272;DHT22;13997;48.902;12.472;2022-08-21T11:22:07;615.00;2432.00
26272;DHT22;13997;48.902;12.472;2022-08-21T11:27:21;640.00;2432.00
26272;DHT22;13997;48.902;12.472;2022-08-21T11:29:54;640.10;2432.00
26272;DHT22;13997;48.902;12.472;2022-08-21T11:32:32;640.20;2432.00
26272;DHT22;13997;48.902;12.472;2022-08-21T11:40:31;640.40;2432.00
26272;DHT22;13997;48.902;12.472;2022-08-21T11:45:55;640.60;2432.00
26272;DHT22;13997;48.902;12.472;2022-08-21T11:48:45;640.70;2432.00
26272;DHT22;13997;48.902;12.472;2022-08-21T11:51:22;640.70;2432.00
26272;DHT22;13997;48.902;12.472;2022-08-21T11:56:39;640.70;2432.00
26272;DHT22;13997;48.902;12.472;2022-08-21T11:59:16;640.70;2432.00
26272;DHT22;13997;48.902;12.472;2022-08-21T12:01:46;640.70;2432.00
26272;DHT22;13997;48.902;12.472;2022-08-21T12:04:28;640.70;2432.00
26272;DHT22;13997;48.902;12.472;2022-08-21T12:06:54;640.80;2432.00
26272;DHT22;13997;48.902;12.472;2022-08-21T12:09:28;665.70;2432.00
26272;DHT22;13997;48.902;12.472;2022-08-21T12:12:31;665.70;2432.00
26272;DHT22;13997;48.902;12.472;2022-08-21T12:18:03;640.90;2432.00
26272;DHT22;13997;48.902;12.472;2022-08-21T12:25:43;640.60;2432.00
26272;DHT22;13997;48.902;12.472;2022-08-21T12:28:15;640.60;2432.00
26272;DHT22;13997;48.902;12.472;2022-08-21T12:30:44;640.70;2432.00
26272;DHT22;13997;48.902;12.472;2022-08-21T12:36:17;640.70;2432.00
26272;DHT22;13997;48.902;12.472;2022-08-21T12:39:11;640.70;2432.00
26272;DHT22;13997;48.902;12.472;2022-08-21T12:41:48;640.70;2432.00
26272;DHT22;13997;48.902;12.472;2022-08-21T12:44:17;640.90;2432.00
26272;DHT22;13997;48.902;12.472;2022-08-21T12:46:51;665.70;2432.00
26272;DHT22;13997;48.902;12.472;2022-08-21T12:49:28;665.80;2432.00
26272;DHT22;13997;48.902;12.472;2022-08-21T12:54:37;666.00;2432.00
26272;DHT22;13997;48.902;12.472;2022-08-21T12:57:05;665.90;2432.00
26272;DHT22;13997;48.902;12.472;2022-08-21T12:59:31;665.90;2432.00
26272;DHT22;13997;48.902;12.472;2022-08-21T13:01:59;665.70;2432.00
26272;DHT22;13997;48.902;12.472;2022-08-21T13:04:37;665.70;2432.00
26272;DHT22;13997;48.902;12.472;2022-08-21T13:07:13;665.70;2432.00
26272;DHT22;13997;48.902;12.472;2022-08-21T13:09:48;665.80;2432.00
26272;DHT22;13997;48.902;12.472;2022-08-21T13:12:16;665.70;2432.00
26272;DHT22;13997;48.902;12.472;2022-08-21T13:14:44;665.70;2432.00
26272;DHT22;13997;48.902;12.472;2022-08-21T13:17:16;665.70;2432.00
26272;DHT22;13997;48.902;12.472;2022-08-21T13:19:42;665.70;2432.00
26272;DHT22;13997;48.902;12.472;2022-08-21T13:22:14;665.80;2432.00
26272;DHT22;13997;48.902;12.472;2022-08-21T13:24:40;665.80;2432.00
26272;DHT22;13997;48.902;12.472;2022-08-21T13:27:38;666.00;2432.00
26272;DHT22;13997;48.902;12.472;2022-08-21T13:30:18;666.00;2432.00
26272;DHT22;13997;48.902;12.472;2022-08-21T13:32:52;666.10;2432.00
26272;DHT22;13997;48.902;12.472;2022-08-21T13:35:21;666.10;2432.00
26272;DHT22;13997;48.902;12.472;2022-08-21T13:37:48;665.90;2432.00
26272;DHT22;13997;48.902;12.472;2022-08-21T13:40:26;666.00;2432.00
26272;DHT22;13997;48.902;12.472;2022-08-21T13:42:53;666.10;2432.00
26272;DHT22;13997;48.902;12.472;2022-08-21T13:45:50;666.10;2432.00
26272;DHT22;13997;48.902;12.472;2022-08-21T13:48:16;666.10;2432.00
26272;DHT22;13997;48.902;12.472;2022-08-21T13:50:42;666.20;2432.00
26272;DHT22;13997;48.902;12.472;2022-08-21T13:55:48;666.10;2432.00
26272;DHT22;13997;48.902;12.472;2022-08-21T13:58:40;666.10;2432.00
26272;DHT22;13997;48.902;12.472;2022-08-21T14:03:48;666.40;2432.00
26272;DHT22;13997;48.902;12.472;2022-08-21T14:06:22;666.30;2432.00
26272;DHT22;13997;48.902;12.472;2022-08-21T14:08:55;666.20;2432.00
26272;DHT22;13997;48.902;12.472;2022-08-21T14:11:21;666.20;2432.00
26272;DHT22;13997;48.902;12.472;2022-08-21T14:16:23;666.30;2432.00
26272;DHT22;13997;48.902;12.472;2022-08-21T14:21:39;666.10;2432.00
26272;DHT22;13997;48.902;12.472;2022-08-21T14:24:11;666.20;2432.00
26272;DHT22;13997;48.902;12.472;2022-08-21T14:26:57;666.10;2432.00
26272;DHT22;13997;48.902;12.472;2022-08-21T14:29:28;666.20;2432.00
26272;DHT22;13997;48.902;12.472;2022-08-21T14:31:59;666.20;2432.00
26272;DHT22;13997;48.902;12.472;2022-08-21T14:34:26;666.00;2432.00
26272;DHT22;13997;48.902;12.472;2022-08-21T14:36:53;666.00;2432.00
26272;DHT22;13997;48.902;12.472;2022-08-21T14:39:20;666.00;2432.00
26272;DHT22;13997;48.902;12.472;2022-08-21T14:41:47;666.10;2432.00
26272;DHT22;13997;48.902;12.472;2022-08-21T14:44:17;666.10;2432.00
26272;DHT22;13997;48.902;12.472;2022-08-21T14:46:43;665.90;2432.00
26272;DHT22;13997;48.902;12.472;2022-08-21T14:49:10;665.90;2432.00
26272;DHT22;13997;48.902;12.472;2022-08-21T14:51:36;665.90;2432.00
26272;DHT22;13997;48.902;12.472;2022-08-21T14:54:04;666.00;2432.00
26272;DHT22;13997;48.902;12.472;2022-08-21T14:56:31;666.10;2432.00
26272;DHT22;13997;48.902;12.472;2022-08-21T14:59:01;666.20;2432.00
26272;DHT22;13997;48.902;12.472;2022-08-21T15:01:28;666.10;2432.00
26272;DHT22;13997;48.902;12.472;2022-08-21T15:03:53;666.00;2432.00
26272;DHT22;13997;48.902;12.472;2022-08-21T15:06:19;666.00;2432.00
26272;DHT22;13997;48.902;12.472;2022-08-21T15:08:46;666.00;2432.00
26272;DHT22;13997;48.902;12.472;2022-08-21T15:11:17;666.10;2432.00
26272;DHT22;13997;48.902;12.472;2022-08-21T15:13:43;666.10;2432.00
26272;DHT22;13997;48.902;12.472;2022-08-21T15:16:11;666.00;2432.00
26272;DHT22;13997;48.902;12.472;2022-08-21T15:18:37;665.90;2432.00
26272;DHT22;13997;48.902;12.472;2022-08-21T15:21:02;665.90;2432.00
26272;DHT22;13997;48.902;12.472;2022-08-21T15:23:28;665.90;2432.00
26272;DHT22;13997;48.902;12.472;2022-08-21T15:25:54;665.80;2432.00
26272;DHT22;13997;48.902;12.472;2022-08-21T15:28:23;665.70;2432.00
26272;DHT22;13997;48.902;12.472;2022-08-21T15:30:49;665.70;2432.00
26272;DHT22;13997;48.902;12.472;2022-08-21T15:33:15;640.90;2432.00
26272;DHT22;13997;48.902;12.472;2022-08-21T15:35:41;640.90;2432.00
26272;DHT22;13997;48.902;12.472;2022-08-21T15:38:06;640.90;2432.00
26272;DHT22;13997;48.902;12.472;2022-08-21T15:40:34;640.90;2432.00
26272;DHT22;13997;48.902;12.472;2022-08-21T15:43:02;640.90;2432.00
26272;DHT22;13997;48.902;12.472;2022-08-21T15:45:28;640.90;2432.00
26272;DHT22;13997;48.902;12.472;2022-08-21T15:47:55;640.80;2432.00
26272;DHT22;13997;48.902;12.472;2022-08-21T15:50:22;640.80;2432.00
26272;DHT22;13997;48.902;12.472;2022-08-21T15:52:47;640.80;2432.00
26272;DHT22;13997;48.902;12.472;2022-08-21T15:55:13;640.80;2432.00
26272;DHT22;13997;48.902;12.472;2022-08-21T16:00:15;640.70;2432.00
26272;DHT22;13997;48.902;12.472;2022-08-21T16:02:47;640.60;2432.00
26272;DHT22;13997;48.902;12.472;2022-08-21T16:05:15;640.30;2432.00
26272;DHT22;13997;48.902;12.472;2022-08-21T16:07:43;640.30;2432.00
26272;DHT22;13997;48.902;12.472;2022-08-21T16:10:09;640.30;2432.00
26272;DHT22;13997;48.902;12.472;2022-08-21T16:12:39;640.20;2432.00
26272;DHT22;13997;48.902;12.472;2022-08-21T16:15:08;640.20;2432.00